createdAt,value
2022-10-01T00:00:56.884Z,89.01
2022-10-01T00:03:24.731Z,89.04
2022-10-01T00:06:01.722Z,89.24
2022-10-01T00:08:29.036Z,89.30
2022-10-01T00:10:55.661Z,89.27
2022-10-01T00:13:22.793Z,89.04
2022-10-01T00:15:49.427Z,88.92
2022-10-01T00:18:16.026Z,89.09
2022-10-01T00:20:43.519Z,89.32
2022-10-01T00:23:13.764Z,89.19
2022-10-01T00:25:40.872Z,89.16
2022-10-01T00:28:07.847Z,89.03
2022-10-01T00:30:38.386Z,88.50
2022-10-01T00:33:06.814Z,89.09
2022-10-01T00:35:33.409Z,89.11
2022-10-01T00:38:00.029Z,88.96
2022-10-01T00:40:26.659Z,89.12
2022-10-01T00:42:53.258Z,89.31
2022-10-01T00:45:19.915Z,89.45
2022-10-01T00:47:55.490Z,89.64
2022-10-01T00:50:28.382Z,89.53
2022-10-01T00:52:57.001Z,90.04
2022-10-01T00:55:37.617Z,89.82
2022-10-01T00:58:04.795Z,89.54
2022-10-01T01:00:31.559Z,89.62
2022-10-01T01:02:58.212Z,89.71
2022-10-01T01:05:24.907Z,89.86
2022-10-01T01:07:52.732Z,89.92
2022-10-01T01:10:30.688Z,89.56
2022-10-01T01:13:10.660Z,89.67
2022-10-01T01:15:37.486Z,89.95
2022-10-01T01:18:06.182Z,89.93
2022-10-01T01:20:50.002Z,89.57
2022-10-01T01:23:16.477Z,89.19
2022-10-01T01:25:58.315Z,89.75
2022-10-01T01:28:31.711Z,89.42
2022-10-01T01:31:06.447Z,89.79
2022-10-01T01:33:34.377Z,89.30
2022-10-01T01:36:09.754Z,89.34
2022-10-01T01:38:43.547Z,89.56
2022-10-01T01:41:10.132Z,89.81
2022-10-01T01:43:38.121Z,89.63
2022-10-01T01:46:05.867Z,89.60
2022-10-01T01:48:32.609Z,90.14
2022-10-01T01:51:04.892Z,89.73
2022-10-01T01:53:32.170Z,89.55
2022-10-01T01:56:00.431Z,89.70
2022-10-01T01:58:27.921Z,89.40
2022-10-01T02:00:54.520Z,89.67
2022-10-01T02:03:23.981Z,89.34
2022-10-01T02:06:21.252Z,89.95
2022-10-01T02:09:11.573Z,89.98
2022-10-01T02:11:44.289Z,89.53
2022-10-01T02:14:21.664Z,89.90
2022-10-01T02:17:03.676Z,89.76
2022-10-01T02:19:33.767Z,89.64
2022-10-01T02:22:05.532Z,90.00
2022-10-01T02:24:48.777Z,90.30
2022-10-01T02:27:36.196Z,89.99
2022-10-01T02:30:08.074Z,89.99
2022-10-01T02:32:35.465Z,90.10
2022-10-01T02:35:02.190Z,89.89
2022-10-01T02:37:28.903Z,90.30
2022-10-01T02:39:55.977Z,89.96
2022-10-01T02:42:23.047Z,89.74
2022-10-01T02:44:49.866Z,89.56
2022-10-01T02:47:28.440Z,90.02
2022-10-01T02:49:55.008Z,89.42
2022-10-01T02:52:26.014Z,89.25
2022-10-01T02:55:09.321Z,89.26
2022-10-01T02:57:36.362Z,89.02
2022-10-01T03:00:09.128Z,89.32
2022-10-01T03:02:35.827Z,89.58
2022-10-01T03:05:02.611Z,89.18
2022-10-01T03:07:30.679Z,89.18
2022-10-01T03:09:57.693Z,89.32
2022-10-01T03:12:24.278Z,88.88
2022-10-01T03:14:51.041Z,89.06
2022-10-01T03:17:17.772Z,88.96
2022-10-01T03:19:44.453Z,89.18
2022-10-01T03:22:12.875Z,88.73
2022-10-01T03:24:39.474Z,89.49
2022-10-01T03:27:06.650Z,89.39
2022-10-01T03:29:33.403Z,89.57
2022-10-01T03:32:00.050Z,89.58
2022-10-01T03:34:26.725Z,89.64
2022-10-01T03:36:53.429Z,89.06
2022-10-01T03:39:20.106Z,89.64
2022-10-01T03:41:46.667Z,89.59
2022-10-01T03:44:13.329Z,89.52
2022-10-01T03:46:40.048Z,89.62
2022-10-01T03:49:06.644Z,89.39
2022-10-01T03:51:33.732Z,89.34
2022-10-01T03:54:00.589Z,89.77
2022-10-01T03:56:27.334Z,90.22
2022-10-01T03:58:53.893Z,90.00
2022-10-01T04:01:20.585Z,89.83
2022-10-01T04:03:47.262Z,89.77
2022-10-01T04:06:13.901Z,89.99
2022-10-01T04:08:40.525Z,89.53
2022-10-01T04:11:07.294Z,90.11
2022-10-01T04:13:34.744Z,90.02
2022-10-01T04:16:02.687Z,89.48
2022-10-01T04:18:29.430Z,89.95
2022-10-01T04:20:56.187Z,89.93
2022-10-01T04:23:22.750Z,89.65
2022-10-01T04:25:49.445Z,89.58
2022-10-01T04:28:16.270Z,89.79
2022-10-01T04:30:44.061Z,89.62
2022-10-01T04:33:15.129Z,89.61
2022-10-01T04:35:41.798Z,89.61
2022-10-01T04:38:12.735Z,90.15
2022-10-01T04:40:39.321Z,90.13
2022-10-01T04:43:06.657Z,89.79
2022-10-01T04:45:33.246Z,89.96
2022-10-01T04:47:59.889Z,90.27
2022-10-01T04:50:26.673Z,89.87
2022-10-01T04:52:53.616Z,90.07
2022-10-01T04:55:20.977Z,89.87
2022-10-01T04:57:47.834Z,89.70
2022-10-01T05:00:22.037Z,89.87
2022-10-01T05:02:49.616Z,89.90
2022-10-01T05:05:16.755Z,89.89
2022-10-01T05:07:43.330Z,89.82
2022-10-01T05:10:12.163Z,89.67
2022-10-01T05:12:38.770Z,89.65
2022-10-01T05:15:05.816Z,89.76
2022-10-01T05:17:34.494Z,89.80
2022-10-01T05:20:01.892Z,89.62
2022-10-01T05:22:28.822Z,90.13
2022-10-01T05:24:55.474Z,90.20
2022-10-01T05:27:22.084Z,90.09
2022-10-01T05:29:49.065Z,90.05
2022-10-01T05:32:15.709Z,89.73
2022-10-01T05:34:42.341Z,89.89
2022-10-01T05:37:22.302Z,89.81
2022-10-01T05:39:48.895Z,89.83
2022-10-01T05:42:15.527Z,90.18
2022-10-01T05:44:46.272Z,89.45
2022-10-01T05:47:13.684Z,90.03
2022-10-01T05:49:43.919Z,90.11
2022-10-01T05:52:11.001Z,89.81
2022-10-01T05:54:37.688Z,89.77
2022-10-01T05:57:05.221Z,90.09
2022-10-01T05:59:32.202Z,89.97
2022-10-01T06:02:00.211Z,89.90
2022-10-01T06:04:26.920Z,89.98
2022-10-01T06:06:53.785Z,89.70
2022-10-01T06:09:20.444Z,90.02
2022-10-01T06:11:48.911Z,89.30
2022-10-01T06:14:16.337Z,89.53
2022-10-01T06:16:43.127Z,89.48
2022-10-01T06:19:09.767Z,89.63
2022-10-01T06:21:36.863Z,89.55
2022-10-01T06:24:03.895Z,89.59
2022-10-01T06:26:31.259Z,89.45
2022-10-01T06:28:57.870Z,89.78
2022-10-01T06:31:25.325Z,89.61
2022-10-01T06:33:52.030Z,89.58
2022-10-01T06:36:18.714Z,89.37
2022-10-01T06:38:48.354Z,89.72
2022-10-01T06:41:15.078Z,89.09
2022-10-01T06:43:41.674Z,89.49
2022-10-01T06:46:08.375Z,89.33
2022-10-01T06:48:36.694Z,89.39
2022-10-01T06:51:04.022Z,89.62
2022-10-01T06:53:32.133Z,89.17
2022-10-01T06:56:06.581Z,89.69
2022-10-01T06:58:33.313Z,89.22
2022-10-01T07:01:01.618Z,89.23
2022-10-01T07:03:28.531Z,89.06
2022-10-01T07:06:40.822Z,88.88
2022-10-01T07:09:07.430Z,88.74
2022-10-01T07:11:36.840Z,88.73
2022-10-01T07:14:03.500Z,88.83
2022-10-01T07:16:30.391Z,89.23
2022-10-01T07:18:57.567Z,89.70
2022-10-01T07:21:24.340Z,89.33
2022-10-01T07:23:51.347Z,88.72
2022-10-01T07:26:18.004Z,88.55
2022-10-01T07:28:45.064Z,88.17
2022-10-01T07:31:11.820Z,87.89
2022-10-01T07:33:39.077Z,87.79
2022-10-01T07:36:06.842Z,87.94
2022-10-01T07:38:33.710Z,88.09
2022-10-01T07:41:02.510Z,88.25
2022-10-01T07:43:29.939Z,88.23
2022-10-01T07:45:58.270Z,88.48
2022-10-01T07:48:25.373Z,87.74
2022-10-01T07:50:52.343Z,86.96
2022-10-01T07:53:19.582Z,87.21
2022-10-01T07:55:46.184Z,87.86
2022-10-01T07:58:12.780Z,87.69
2022-10-01T08:00:39.419Z,87.89
2022-10-01T08:03:06.037Z,87.66
2022-10-01T08:05:34.290Z,87.64
2022-10-01T08:08:04.968Z,87.08
2022-10-01T08:10:36.621Z,87.18
2022-10-01T08:13:08.905Z,87.10
2022-10-01T08:15:35.842Z,86.64
2022-10-01T08:18:04.389Z,85.52
2022-10-01T08:20:31.096Z,84.58
2022-10-01T08:23:04.518Z,83.76
2022-10-01T08:25:31.508Z,84.17
2022-10-01T08:27:58.189Z,84.06
2022-10-01T08:30:25.490Z,83.89
2022-10-01T08:32:59.485Z,83.74
2022-10-01T08:35:26.253Z,83.72
2022-10-01T08:37:55.029Z,83.74
2022-10-01T08:40:21.877Z,84.30
2022-10-01T08:43:00.012Z,83.68
2022-10-01T08:45:39.217Z,84.10
2022-10-01T08:48:25.463Z,83.87
2022-10-01T08:56:08.175Z,82.97
2022-10-01T08:58:41.215Z,83.89
2022-10-01T09:01:10.590Z,84.68
2022-10-01T09:03:37.305Z,85.08
2022-10-01T09:06:13.270Z,85.58
2022-10-01T09:09:00.073Z,85.61
2022-10-01T09:11:37.130Z,85.22
2022-10-01T09:14:19.411Z,84.62
2022-10-01T09:16:58.013Z,83.63
2022-10-01T09:19:54.992Z,83.72
2022-10-01T09:22:40.789Z,84.25
2022-10-01T09:25:26.272Z,83.85
2022-10-01T09:28:00.343Z,84.38
2022-10-01T09:30:27.348Z,84.27
2022-10-01T09:32:56.173Z,84.08
2022-10-01T09:36:01.506Z,84.70
2022-10-01T09:38:39.865Z,84.15
2022-10-01T09:41:08.160Z,83.93
2022-10-01T09:43:36.868Z,83.96
2022-10-01T09:46:04.932Z,83.96
2022-10-01T09:48:53.076Z,84.12
2022-10-01T09:51:41.361Z,84.25
2022-10-01T09:54:30.315Z,84.29
2022-10-01T09:57:05.032Z,83.73
2022-10-01T09:59:36.115Z,84.19
2022-10-01T10:02:02.997Z,83.86
2022-10-01T10:04:31.636Z,84.24
2022-10-01T10:07:05.233Z,84.33
2022-10-01T10:09:33.128Z,84.14
2022-10-01T10:11:59.955Z,84.62
2022-10-01T10:14:31.274Z,84.76
2022-10-01T10:16:59.135Z,84.77
2022-10-01T10:19:28.823Z,84.93
2022-10-01T10:21:59.821Z,84.45
2022-10-01T10:24:27.527Z,83.51
2022-10-01T10:26:56.197Z,83.45
2022-10-01T10:29:33.717Z,83.15
2022-10-01T10:32:23.920Z,83.13
2022-10-01T10:34:50.499Z,82.62
2022-10-01T10:37:19.493Z,81.67
2022-10-01T10:39:50.121Z,81.81
2022-10-01T10:42:16.963Z,81.06
2022-10-01T10:44:44.176Z,81.30
2022-10-01T10:47:14.136Z,81.48
2022-10-01T10:49:53.453Z,80.96
2022-10-01T10:52:33.819Z,80.81
2022-10-01T10:55:01.983Z,80.05
2022-10-01T10:57:34.120Z,79.35
2022-10-01T11:00:12.414Z,78.43
2022-10-01T11:02:40.213Z,79.04
2022-10-01T11:05:18.851Z,77.82
2022-10-01T11:07:45.613Z,76.88
2022-10-01T11:10:23.577Z,77.68
2022-10-01T11:13:09.099Z,76.47
2022-10-01T11:15:57.592Z,74.75
2022-10-01T11:18:38.923Z,75.15
2022-10-01T11:21:13.556Z,74.93
2022-10-01T11:23:53.685Z,71.41
2022-10-01T11:26:29.486Z,71.65
2022-10-01T11:29:16.347Z,72.59
2022-10-01T11:31:55.042Z,71.77
2022-10-01T11:34:48.711Z,70.73
2022-10-01T11:37:28.655Z,69.10
2022-10-01T11:39:55.927Z,69.07
2022-10-01T11:42:25.069Z,68.70
2022-10-01T11:45:00.764Z,68.68
2022-10-01T11:47:32.287Z,67.73
2022-10-01T11:50:08.123Z,67.58
2022-10-01T11:52:50.079Z,69.28
2022-10-01T11:55:39.300Z,70.32
2022-10-01T11:58:43.080Z,70.59
2022-10-01T12:01:16.391Z,70.02
2022-10-01T12:04:16.618Z,70.10
2022-10-01T12:06:49.491Z,69.81
2022-10-01T12:09:33.249Z,70.91
2022-10-01T12:12:07.043Z,70.42
2022-10-01T12:14:52.850Z,70.37
2022-10-01T12:17:26.265Z,71.12
2022-10-01T12:19:54.974Z,71.50
2022-10-01T12:22:26.501Z,70.88
2022-10-01T12:24:53.828Z,70.98
2022-10-01T12:27:26.548Z,70.58
2022-10-01T12:30:09.259Z,70.41
2022-10-01T12:32:47.994Z,70.66
2022-10-01T12:35:35.459Z,71.26
2022-10-01T12:38:14.070Z,71.30
2022-10-01T12:40:47.091Z,72.34
2022-10-01T12:43:16.542Z,72.33
2022-10-01T12:46:11.112Z,72.36
2022-10-01T12:48:56.782Z,73.33
2022-10-01T12:51:32.483Z,73.71
2022-10-01T12:54:23.931Z,73.82
2022-10-01T12:57:13.789Z,74.43
2022-10-01T12:59:52.802Z,73.60
2022-10-01T13:02:39.485Z,73.64
2022-10-01T13:05:24.132Z,74.04
2022-10-01T13:08:09.696Z,73.89
2022-10-01T13:10:45.139Z,73.76
2022-10-01T13:13:32.895Z,72.71
2022-10-01T13:16:23.197Z,73.28
2022-10-01T13:19:19.157Z,73.81
2022-10-01T13:21:57.824Z,73.90
2022-10-01T13:24:32.745Z,73.95
2022-10-01T13:27:01.500Z,73.95
2022-10-01T13:29:56.184Z,73.80
2022-10-01T13:32:35.856Z,73.96
2022-10-01T13:35:21.348Z,73.13
2022-10-01T13:37:47.940Z,73.23
2022-10-01T13:40:29.049Z,73.79
2022-10-01T13:43:03.453Z,72.76
2022-10-01T13:45:34.332Z,73.31
2022-10-01T13:48:32.454Z,73.44
2022-10-01T13:51:03.655Z,72.56
2022-10-01T13:53:52.569Z,72.89
2022-10-01T13:56:31.370Z,70.89
2022-10-01T13:58:58.196Z,71.42
2022-10-01T14:01:24.720Z,71.73
2022-10-01T14:04:10.104Z,71.91
2022-10-01T14:06:36.827Z,71.06
2022-10-01T14:09:29.162Z,72.66
2022-10-01T14:12:40.814Z,72.85
2022-10-01T14:15:57.721Z,73.04
2022-10-01T14:18:26.958Z,72.56
2022-10-01T14:21:22.896Z,73.24
2022-10-01T14:24:08.081Z,73.37
2022-10-01T14:26:43.789Z,73.70
2022-10-01T14:29:22.812Z,74.17
2022-10-01T14:32:10.473Z,74.33
2022-10-01T14:34:42.414Z,73.49
2022-10-01T14:37:16.223Z,73.73
2022-10-01T14:39:43.638Z,74.09
2022-10-01T14:42:17.004Z,74.04
2022-10-01T14:44:45.625Z,73.40
2022-10-01T14:47:23.116Z,73.49
2022-10-01T14:49:50.272Z,73.99
2022-10-01T14:56:08.816Z,74.78
2022-10-01T14:59:02.926Z,75.07
2022-10-01T15:01:29.631Z,74.99
2022-10-01T15:03:56.213Z,75.36
2022-10-01T15:06:24.654Z,75.23
2022-10-01T15:08:52.959Z,75.17
2022-10-01T15:11:27.033Z,75.02
2022-10-01T15:13:55.529Z,75.76
2022-10-01T15:16:23.475Z,76.37
2022-10-01T15:18:53.496Z,76.86
2022-10-01T15:21:23.123Z,77.00
2022-10-01T15:23:49.802Z,77.17
2022-10-01T15:26:20.130Z,77.04
2022-10-01T15:28:46.697Z,76.72
2022-10-01T15:31:13.920Z,77.20
2022-10-01T15:33:40.691Z,76.95
2022-10-01T15:36:16.389Z,76.75
2022-10-01T15:38:44.449Z,77.04
2022-10-01T15:41:31.725Z,76.64
2022-10-01T15:43:59.774Z,76.28
2022-10-01T15:46:35.105Z,77.11
2022-10-01T15:49:19.766Z,77.31
2022-10-01T15:52:10.903Z,77.53
2022-10-01T15:54:38.198Z,77.50
2022-10-01T15:57:04.882Z,77.23
2022-10-01T15:59:31.610Z,77.57
2022-10-01T16:01:58.296Z,77.69
2022-10-01T16:04:24.970Z,77.81
2022-10-01T16:06:52.060Z,77.45
2022-10-01T16:09:25.255Z,77.95
2022-10-01T16:11:56.587Z,78.10
2022-10-01T16:14:44.239Z,77.99
2022-10-01T16:17:17.163Z,78.58
2022-10-01T16:19:47.257Z,78.80
2022-10-01T16:22:34.566Z,79.00
2022-10-01T16:25:58.858Z,79.10
2022-10-01T16:28:30.373Z,79.20
2022-10-01T16:30:57.084Z,79.76
2022-10-01T16:33:23.711Z,80.04
2022-10-01T16:35:50.312Z,80.13
2022-10-01T16:38:16.903Z,79.74
2022-10-01T16:40:44.258Z,80.74
2022-10-01T16:43:16.445Z,81.09
2022-10-01T16:45:43.195Z,80.77
2022-10-01T16:48:15.787Z,81.06
2022-10-01T16:50:42.945Z,81.05
2022-10-01T16:53:15.170Z,82.76
2022-10-01T16:55:42.625Z,82.73
2022-10-01T16:58:09.588Z,83.04
2022-10-01T17:00:37.332Z,82.94
2022-10-01T17:03:06.232Z,83.36
2022-10-01T17:05:35.129Z,83.59
2022-10-01T17:08:03.478Z,83.51
2022-10-01T17:10:31.754Z,82.08
2022-10-01T17:12:59.578Z,78.18
2022-10-01T17:15:27.257Z,78.56
2022-10-01T17:17:54.468Z,78.03
2022-10-01T17:20:22.123Z,77.90
2022-10-01T17:22:49.436Z,78.17
2022-10-01T17:25:19.105Z,78.53
2022-10-01T17:27:45.789Z,77.83
2022-10-01T17:30:12.853Z,77.89
2022-10-01T17:32:43.412Z,78.39
2022-10-01T17:35:11.175Z,77.76
2022-10-01T17:37:38.138Z,78.51
2022-10-01T17:40:54.205Z,79.46
2022-10-01T17:43:23.203Z,80.00
2022-10-01T17:45:55.521Z,80.45
2022-10-01T17:48:22.164Z,81.12
2022-10-01T17:50:50.704Z,81.13
2022-10-01T17:53:17.403Z,81.29
2022-10-01T17:55:46.757Z,81.76
2022-10-01T18:02:36.668Z,82.05
2022-10-01T18:04:59.436Z,81.98
2022-10-01T18:07:27.104Z,81.97
2022-10-01T18:09:53.981Z,82.01
2022-10-01T18:12:20.596Z,81.83
2022-10-01T18:14:47.197Z,81.99
2022-10-01T18:17:13.876Z,82.21
2022-10-01T18:19:53.266Z,81.82
2022-10-01T18:22:20.837Z,82.36
2022-10-01T18:24:47.605Z,81.82
2022-10-01T18:27:14.272Z,81.63
2022-10-01T18:29:56.220Z,81.82
2022-10-01T18:32:24.952Z,81.81
2022-10-01T18:34:57.875Z,81.75
2022-10-01T18:37:24.369Z,81.92
2022-10-01T18:40:10.549Z,81.58
2022-10-01T18:42:58.216Z,81.40
2022-10-01T18:45:36.774Z,80.75
2022-10-01T18:48:15.410Z,81.39
2022-10-01T18:51:14.203Z,81.41
2022-10-01T18:53:52.821Z,81.60
2022-10-01T18:56:32.343Z,81.23
2022-10-01T18:59:18.200Z,81.49
2022-10-01T19:02:08.804Z,81.91
2022-10-01T19:04:46.991Z,81.74
2022-10-01T19:07:47.044Z,81.83
2022-10-01T19:10:34.753Z,81.91
2022-10-01T19:13:18.111Z,82.04
2022-10-01T19:16:16.903Z,81.39
2022-10-01T19:18:43.501Z,81.70
2022-10-01T19:21:27.822Z,81.69
2022-10-01T19:23:57.377Z,80.94
2022-10-01T19:26:31.357Z,80.85
2022-10-01T19:29:35.375Z,81.25
2022-10-01T19:32:02.778Z,81.37
2022-10-01T19:34:44.774Z,81.41
2022-10-01T19:37:15.776Z,81.43
2022-10-01T19:39:42.496Z,81.72
2022-10-01T19:42:17.540Z,81.58
2022-10-01T19:44:55.781Z,81.90
2022-10-01T19:47:25.295Z,81.65
2022-10-01T19:49:52.120Z,81.81
2022-10-01T19:52:18.738Z,81.68
2022-10-01T19:54:49.031Z,81.95
2022-10-01T19:57:22.232Z,81.52
2022-10-01T19:59:49.445Z,81.54
2022-10-01T20:02:46.348Z,81.30
2022-10-01T20:05:15.069Z,80.93
2022-10-01T20:07:56.648Z,80.86
2022-10-01T20:10:41.371Z,81.71
2022-10-01T20:13:33.345Z,81.23
2022-10-01T20:19:56.713Z,81.56
2022-10-01T20:22:30.259Z,81.96
2022-10-01T20:25:24.010Z,82.17
2022-10-01T20:27:59.841Z,82.31
2022-10-01T20:30:26.716Z,82.08
2022-10-01T20:33:20.170Z,82.35
2022-10-01T20:35:55.880Z,82.15
2022-10-01T20:38:24.385Z,82.70
2022-10-01T20:40:55.578Z,82.75
2022-10-01T20:43:49.344Z,82.49
2022-10-01T20:46:35.117Z,83.40
2022-10-01T20:49:04.609Z,83.36
2022-10-01T20:52:22.145Z,83.61
2022-10-01T20:54:52.078Z,83.42
2022-10-01T20:57:30.568Z,83.59
2022-10-01T20:59:58.449Z,83.74
2022-10-01T21:02:33.914Z,84.00
2022-10-01T21:05:07.222Z,83.90
2022-10-01T21:08:24.810Z,83.86
2022-10-01T21:10:55.845Z,84.44
2022-10-01T21:13:31.285Z,84.51
2022-10-01T21:16:05.833Z,84.00
2022-10-01T21:18:38.480Z,83.88
2022-10-01T21:21:15.543Z,84.15
2022-10-01T21:24:18.682Z,84.01
2022-10-01T21:27:00.942Z,84.01
2022-10-01T21:29:47.631Z,84.02
2022-10-01T21:32:52.587Z,84.22
2022-10-01T21:39:06.399Z,83.79
2022-10-01T21:42:12.365Z,83.61
2022-10-01T21:45:00.800Z,83.55
2022-10-01T21:47:55.594Z,83.58
2022-10-01T21:50:28.215Z,83.81
2022-10-01T21:53:16.072Z,83.23
2022-10-01T21:56:08.177Z,83.09
2022-10-01T21:59:02.562Z,83.57
2022-10-01T22:01:48.995Z,83.29
2022-10-01T22:04:35.574Z,83.10
2022-10-01T22:07:24.300Z,83.10
2022-10-01T22:10:13.119Z,82.92
2022-10-01T22:12:40.598Z,82.51
2022-10-01T22:15:28.549Z,83.40
2022-10-01T22:17:55.313Z,83.45
2022-10-01T22:20:24.193Z,83.28
2022-10-01T22:22:52.304Z,82.93
2022-10-01T22:25:19.013Z,83.11
2022-10-01T22:27:58.603Z,83.46
2022-10-01T22:30:26.446Z,83.14
2022-10-01T22:33:13.348Z,83.15
2022-10-01T22:35:42.046Z,83.17
2022-10-01T22:38:29.774Z,83.34
2022-10-01T22:41:10.268Z,83.82
2022-10-01T22:43:37.523Z,83.40
2022-10-01T22:50:16.102Z,83.10
2022-10-01T22:52:55.041Z,83.28
2022-10-01T22:55:24.745Z,83.66
2022-10-01T22:57:59.850Z,83.61
2022-10-01T23:00:26.635Z,83.76
2022-10-01T23:03:22.525Z,83.90
2022-10-01T23:06:11.554Z,84.01
2022-10-01T23:09:17.287Z,84.35
2022-10-01T23:12:09.299Z,83.65
2022-10-01T23:15:14.555Z,84.12
2022-10-01T23:18:19.517Z,83.58
2022-10-01T23:21:18.359Z,83.79
2022-10-01T23:23:52.054Z,83.59
2022-10-01T23:26:24.764Z,83.46
2022-10-01T23:28:58.763Z,83.77
2022-10-01T23:31:31.436Z,83.84
2022-10-01T23:34:23.385Z,83.94
2022-10-01T23:37:09.263Z,83.95
2022-10-01T23:40:01.723Z,84.65
2022-10-01T23:42:30.422Z,84.40
2022-10-01T23:45:36.441Z,83.78
2022-10-01T23:48:18.614Z,84.09
2022-10-01T23:50:57.354Z,84.10
2022-10-01T23:54:01.151Z,84.12
2022-10-01T23:56:50.970Z,84.44
2022-10-01T23:59:26.608Z,84.62
